Ottawa International, Ontario

5:10 AM EST on December 29, 2014 (GMT -0500)
Ottawa-Macdonald-Cartier International | Change Station
CLOSE
Current Station
Airport
Location: Ottawa International,
Elevation: 374 ft
Nearby Weather Stations

Elev 374 ft 45.32 °N, 75.67 °W | Updated 10 minutes ago

Partly Cloudy
Partly Cloudy
18 °F
Feels Like 3 °F
N
16
Wind Variable Wind from NW

Today is forecast to be nearly the same temperature as yesterday.

Today
High -- | Low -- °F
--% Chance of Precip.
Yesterday
High -- | Low -- °F
Precip. -- in
7:41 AM 4:27 PM
First Quarter, 57% visible
Pressure 30.17 in
Visibility 15.0 miles
Clouds Few 4000 ft
Windchill 3 °F
Dew Point 7 °F
Humidity 63%
Rainfall 0.00 in
Snow Depth Not available.
UV 0 out of 12
Pollen Not available.
Air Quality Not available.
Flu Activity Not available.
METAR CYOW 291000Z 31014KT 15SM FEW040 M08/M14 A3014 RMK SC1 SLP214

More Conditions Fewer Conditions

Pressure 30.17 in
Visibility 15.0 miles
Clouds Few 4000 ft
Windchill 3 °F
Dew Point 7 °F
Humidity 63%
Rainfall 0.00 in
Snow Depth Not available.
UV 0 out of 12
Pollen Not available.
Air Quality Not available.
Flu Activity Not available.
METAR CYOW 291000Z 31014KT 15SM FEW040 M08/M14 A3014 RMK SC1 SLP214

More Conditions Fewer Conditions

10-Day Weather Forecast

Almanac

Astronomy

Dec. 29, 2014 Rise Set
Actual Time
Civil Twilight
Nautical Twilight
Astronomical Twilight
Moon
Length of Visible Light
Length of Day
Tomorrow will be .
, % of the Moon is Illuminated

Today's Extremes

Country Highs Country Lows

Community

WunderPhotos

Upload Photos

1,781,563 photos uploaded!

WunderBlogs® & News

Nearby

Air Quality

  Air Quality AQ Index Pollutant
Not available.

Snow Depth

Station Depth Elevation

Earthquake Activity

City Distance Mag. Time & Date
Minimum magnitude displayed is 2.5.

Coastal Water Temperatures

Place Temperature

Nearby Weather Stations